sensor_id;sensor_type;location;lat;lon;timestamp;pressure;altitude;pressure_sealevel;temperature;humidity
64841;BME280;51307;52.162;7.560;2023-07-20T00:00:26;100821.88;;;18.41;57.57
64841;BME280;51307;52.162;7.560;2023-07-20T00:02:52;100817.72;;;18.38;57.62
64841;BME280;51307;52.162;7.560;2023-07-20T00:05:17;100818.16;;;18.35;57.43
64841;BME280;51307;52.162;7.560;2023-07-20T00:07:50;100823.34;;;18.30;57.84
64841;BME280;51307;52.162;7.560;2023-07-20T00:10:17;100820.88;;;18.15;58.11
64841;BME280;51307;52.162;7.560;2023-07-20T00:12:42;100824.81;;;18.06;58.48
64841;BME280;51307;52.162;7.560;2023-07-20T00:15:13;100816.66;;;18.46;57.65
64841;BME280;51307;52.162;7.560;2023-07-20T00:17:38;100815.88;;;18.32;58.15
64841;BME280;51307;52.162;7.560;2023-07-20T00:20:06;100818.16;;;18.22;58.64
64841;BME280;51307;52.162;7.560;2023-07-20T00:22:32;100818.94;;;18.49;57.33
64841;BME280;51307;52.162;7.560;2023-07-20T00:24:57;100814.34;;;18.63;57.16
64841;BME280;51307;52.162;7.560;2023-07-20T00:27:23;100814.84;;;18.13;58.19
64841;BME280;51307;52.162;7.560;2023-07-20T00:29:48;100815.66;;;18.40;57.89
64841;BME280;51307;52.162;7.560;2023-07-20T00:32:14;100813.97;;;18.39;58.00
64841;BME280;51307;52.162;7.560;2023-07-20T00:34:39;100813.38;;;18.24;58.33
64841;BME280;51307;52.162;7.560;2023-07-20T00:37:05;100817.53;;;18.26;58.40
64841;BME280;51307;52.162;7.560;2023-07-20T00:39:30;100809.84;;;17.96;59.22
64841;BME280;51307;52.162;7.560;2023-07-20T00:41:55;100810.03;;;18.08;59.19
64841;BME280;51307;52.162;7.560;2023-07-20T00:44:21;100802.31;;;18.19;58.70
64841;BME280;51307;52.162;7.560;2023-07-20T00:46:47;100801.91;;;18.15;58.39
64841;BME280;51307;52.162;7.560;2023-07-20T00:49:14;100802.94;;;18.14;58.69
64841;BME280;51307;52.162;7.560;2023-07-20T00:51:40;100799.00;;;17.96;59.22
64841;BME280;51307;52.162;7.560;2023-07-20T00:54:06;100802.13;;;17.93;59.23
64841;BME280;51307;52.162;7.560;2023-07-20T00:56:32;100800.69;;;17.97;58.99
64841;BME280;51307;52.162;7.560;2023-07-20T00:58:57;100806.09;;;17.91;59.03
64841;BME280;51307;52.162;7.560;2023-07-20T01:01:23;100806.91;;;18.11;58.42
64841;BME280;51307;52.162;7.560;2023-07-20T01:03:48;100809.00;;;17.96;59.22
64841;BME280;51307;52.162;7.560;2023-07-20T01:06:24;100803.00;;;17.80;59.40
64841;BME280;51307;52.162;7.560;2023-07-20T01:09:02;100808.59;;;17.99;59.13
64841;BME280;51307;52.162;7.560;2023-07-20T01:11:43;100806.72;;;18.13;58.82
64841;BME280;51307;52.162;7.560;2023-07-20T01:14:16;100803.19;;;17.86;59.20
64841;BME280;51307;52.162;7.560;2023-07-20T01:16:42;100808.19;;;17.55;59.75
64841;BME280;51307;52.162;7.560;2023-07-20T01:19:07;100807.97;;;17.84;59.05
64841;BME280;51307;52.162;7.560;2023-07-20T01:21:44;100809.22;;;17.88;58.87
64841;BME280;51307;52.162;7.560;2023-07-20T01:24:39;100819.22;;;17.80;58.89
64841;BME280;51307;52.162;7.560;2023-07-20T01:32:54;100820.88;;;17.81;59.15
64841;BME280;51307;52.162;7.560;2023-07-20T01:35:26;100807.75;;;17.52;59.40
64841;BME280;51307;52.162;7.560;2023-07-20T01:37:53;100805.69;;;17.67;59.20
64841;BME280;51307;52.162;7.560;2023-07-20T01:40:19;100815.25;;;17.83;58.96
64841;BME280;51307;52.162;7.560;2023-07-20T01:42:46;100824.06;;;17.17;61.37
64841;BME280;51307;52.162;7.560;2023-07-20T01:45:12;100821.16;;;17.18;62.25
64841;BME280;51307;52.162;7.560;2023-07-20T01:47:37;100819.22;;;17.80;60.83
64841;BME280;51307;52.162;7.560;2023-07-20T01:50:03;100830.84;;;16.92;63.82
64841;BME280;51307;52.162;7.560;2023-07-20T01:52:28;100825.22;;;16.94;64.47
64841;BME280;51307;52.162;7.560;2023-07-20T01:54:54;100821.28;;;16.90;65.59
64841;BME280;51307;52.162;7.560;2023-07-20T01:57:20;100822.94;;;16.91;65.45
64841;BME280;51307;52.162;7.560;2023-07-20T01:59:45;100819.34;;;16.70;66.27
64841;BME280;51307;52.162;7.560;2023-07-20T02:02:11;100821.50;;;16.95;65.74
64841;BME280;51307;52.162;7.560;2023-07-20T02:04:36;100825.94;;;16.61;67.52
64841;BME280;51307;52.162;7.560;2023-07-20T02:07:02;100830.16;;;16.77;66.93
64841;BME280;51307;52.162;7.560;2023-07-20T02:09:27;100831.16;;;16.69;67.22
64841;BME280;51307;52.162;7.560;2023-07-20T02:11:53;100827.09;;;16.87;65.91
64841;BME280;51307;52.162;7.560;2023-07-20T02:14:18;100832.44;;;16.73;66.73
64841;BME280;51307;52.162;7.560;2023-07-20T02:16:44;100836.41;;;16.42;67.12
64841;BME280;51307;52.162;7.560;2023-07-20T02:19:09;100839.94;;;16.43;67.21
64841;BME280;51307;52.162;7.560;2023-07-20T02:21:36;100841.97;;;16.69;65.68
64841;BME280;51307;52.162;7.560;2023-07-20T02:24:01;100839.78;;;16.51;66.84
64841;BME280;51307;52.162;7.560;2023-07-20T02:26:27;100836.81;;;16.74;65.91
64841;BME280;51307;52.162;7.560;2023-07-20T02:28:52;100842.47;;;16.93;64.88
64841;BME280;51307;52.162;7.560;2023-07-20T02:31:17;100839.97;;;16.50;66.44
64841;BME280;51307;52.162;7.560;2023-07-20T02:33:43;100835.91;;;16.67;65.81
64841;BME280;51307;52.162;7.560;2023-07-20T02:36:08;100843.94;;;16.54;66.71
64841;BME280;51307;52.162;7.560;2023-07-20T02:38:34;100845.13;;;16.44;67.10
64841;BME280;51307;52.162;7.560;2023-07-20T02:40:59;100852.28;;;16.59;66.75
64841;BME280;51307;52.162;7.560;2023-07-20T02:43:25;100843.31;;;16.87;65.96
64841;BME280;51307;52.162;7.560;2023-07-20T02:45:50;100847.81;;;16.73;65.74
64841;BME280;51307;52.162;7.560;2023-07-20T02:48:16;100850.91;;;16.41;67.53
64841;BME280;51307;52.162;7.560;2023-07-20T02:50:43;100850.81;;;16.56;67.06
64841;BME280;51307;52.162;7.560;2023-07-20T02:53:09;100853.22;;;16.73;66.17
64841;BME280;51307;52.162;7.560;2023-07-20T02:55:34;100853.28;;;16.93;65.77
64841;BME280;51307;52.162;7.560;2023-07-20T02:58:00;100858.38;;;16.39;67.02
64841;BME280;51307;52.162;7.560;2023-07-20T03:00:25;100853.25;;;16.86;65.73
64841;BME280;51307;52.162;7.560;2023-07-20T03:02:51;100863.59;;;16.69;66.73
64841;BME280;51307;52.162;7.560;2023-07-20T03:05:24;100865.72;;;16.45;67.34
64841;BME280;51307;52.162;7.560;2023-07-20T03:07:51;100865.59;;;16.32;67.67
64841;BME280;51307;52.162;7.560;2023-07-20T03:10:16;100869.06;;;15.98;68.89
64841;BME280;51307;52.162;7.560;2023-07-20T03:12:42;100863.34;;;16.64;66.72
64841;BME280;51307;52.162;7.560;2023-07-20T03:15:08;100863.38;;;16.14;67.87
64841;BME280;51307;52.162;7.560;2023-07-20T03:17:33;100866.97;;;16.21;68.00
64841;BME280;51307;52.162;7.560;2023-07-20T03:19:59;100868.13;;;16.40;67.46
64841;BME280;51307;52.162;7.560;2023-07-20T03:22:26;100860.28;;;16.74;66.20
64841;BME280;51307;52.162;7.560;2023-07-20T03:24:51;100869.78;;;16.63;66.58
64841;BME280;51307;52.162;7.560;2023-07-20T03:27:18;100866.81;;;16.58;66.77
64841;BME280;51307;52.162;7.560;2023-07-20T03:29:44;100867.59;;;16.45;67.06
64841;BME280;51307;52.162;7.560;2023-07-20T03:32:10;100863.97;;;16.09;67.94
64841;BME280;51307;52.162;7.560;2023-07-20T03:34:36;100862.19;;;16.45;66.81
64841;BME280;51307;52.162;7.560;2023-07-20T03:37:02;100877.91;;;16.41;67.20
64841;BME280;51307;52.162;7.560;2023-07-20T03:39:30;100855.81;;;16.03;67.96
64841;BME280;51307;52.162;7.560;2023-07-20T03:41:55;100864.06;;;16.23;67.11
64841;BME280;51307;52.162;7.560;2023-07-20T03:44:21;100865.28;;;16.20;67.68
64841;BME280;51307;52.162;7.560;2023-07-20T03:46:46;100866.34;;;16.19;67.97
64841;BME280;51307;52.162;7.560;2023-07-20T03:49:12;100873.88;;;16.02;68.62
64841;BME280;51307;52.162;7.560;2023-07-20T03:51:37;100866.03;;;16.07;68.94
64841;BME280;51307;52.162;7.560;2023-07-20T03:54:03;100877.94;;;15.91;69.25
64841;BME280;51307;52.162;7.560;2023-07-20T03:56:28;100876.78;;;16.01;68.88
64841;BME280;51307;52.162;7.560;2023-07-20T03:58:54;100880.50;;;16.00;68.82
64841;BME280;51307;52.162;7.560;2023-07-20T04:01:19;100880.94;;;16.03;68.47
64841;BME280;51307;52.162;7.560;2023-07-20T04:03:45;100878.44;;;16.02;68.81
64841;BME280;51307;52.162;7.560;2023-07-20T04:06:10;100894.94;;;15.70;69.80
64841;BME280;51307;52.162;7.560;2023-07-20T04:08:36;100888.97;;;15.96;68.28
64841;BME280;51307;52.162;7.560;2023-07-20T04:11:02;100883.91;;;15.65;69.49
64841;BME280;51307;52.162;7.560;2023-07-20T04:13:28;100882.19;;;15.79;69.28
64841;BME280;51307;52.162;7.560;2023-07-20T04:15:54;100891.28;;;16.00;68.46
64841;BME280;51307;52.162;7.560;2023-07-20T04:18:20;100881.53;;;15.77;69.13
64841;BME280;51307;52.162;7.560;2023-07-20T04:20:46;100889.75;;;15.90;68.47
64841;BME280;51307;52.162;7.560;2023-07-20T04:23:11;100887.56;;;16.01;67.65
64841;BME280;51307;52.162;7.560;2023-07-20T04:25:39;100888.13;;;15.74;68.77
64841;BME280;51307;52.162;7.560;2023-07-20T04:28:08;100888.91;;;15.90;68.42
64841;BME280;51307;52.162;7.560;2023-07-20T04:30:35;100890.66;;;15.76;69.00
64841;BME280;51307;52.162;7.560;2023-07-20T04:33:02;100891.03;;;15.94;68.36
64841;BME280;51307;52.162;7.560;2023-07-20T04:35:52;100892.38;;;16.05;67.95
64841;BME280;51307;52.162;7.560;2023-07-20T04:38:18;100906.13;;;15.89;68.55
64841;BME280;51307;52.162;7.560;2023-07-20T04:40:49;100902.22;;;15.70;69.18
64841;BME280;51307;52.162;7.560;2023-07-20T04:43:16;100900.41;;;15.77;68.03
64841;BME280;51307;52.162;7.560;2023-07-20T04:45:42;100900.88;;;15.80;68.60
64841;BME280;51307;52.162;7.560;2023-07-20T04:48:15;100908.34;;;16.00;67.81
64841;BME280;51307;52.162;7.560;2023-07-20T04:50:42;100899.59;;;15.98;68.20
64841;BME280;51307;52.162;7.560;2023-07-20T04:53:09;100907.69;;;15.98;68.37
64841;BME280;51307;52.162;7.560;2023-07-20T04:55:36;100905.25;;;15.82;68.65
64841;BME280;51307;52.162;7.560;2023-07-20T04:58:03;100913.13;;;16.05;68.56
64841;BME280;51307;52.162;7.560;2023-07-20T05:00:29;100909.91;;;16.16;67.94
64841;BME280;51307;52.162;7.560;2023-07-20T05:02:56;100910.56;;;16.18;68.01
64841;BME280;51307;52.162;7.560;2023-07-20T05:05:21;100911.06;;;15.85;69.41
64841;BME280;51307;52.162;7.560;2023-07-20T05:07:47;100916.31;;;15.72;69.03
64841;BME280;51307;52.162;7.560;2023-07-20T05:10:12;100905.56;;;15.93;68.48
64841;BME280;51307;52.162;7.560;2023-07-20T05:12:38;100903.75;;;16.01;68.01
64841;BME280;51307;52.162;7.560;2023-07-20T05:15:04;100912.06;;;15.99;68.83
64841;BME280;51307;52.162;7.560;2023-07-20T05:17:29;100909.63;;;15.83;69.25
64841;BME280;51307;52.162;7.560;2023-07-20T05:19:55;100915.38;;;16.01;68.47
64841;BME280;51307;52.162;7.560;2023-07-20T05:22:20;100921.03;;;16.06;67.66
64841;BME280;51307;52.162;7.560;2023-07-20T05:24:46;100917.66;;;15.76;67.25
64841;BME280;51307;52.162;7.560;2023-07-20T05:27:12;100917.56;;;16.12;67.16
64841;BME280;51307;52.162;7.560;2023-07-20T05:29:37;100923.47;;;16.01;67.07
64841;BME280;51307;52.162;7.560;2023-07-20T05:32:03;100924.66;;;16.20;66.51
64841;BME280;51307;52.162;7.560;2023-07-20T05:34:29;100930.63;;;15.51;69.39
64841;BME280;51307;52.162;7.560;2023-07-20T05:36:55;100934.91;;;16.03;67.44
64841;BME280;51307;52.162;7.560;2023-07-20T05:39:20;100934.78;;;15.90;67.01
64841;BME280;51307;52.162;7.560;2023-07-20T05:41:46;100936.38;;;16.27;65.38
64841;BME280;51307;52.162;7.560;2023-07-20T05:44:11;100931.38;;;16.24;66.01
64841;BME280;51307;52.162;7.560;2023-07-20T05:46:37;100937.88;;;16.30;66.16
64841;BME280;51307;52.162;7.560;2023-07-20T05:49:02;100942.81;;;15.83;66.63
64841;BME280;51307;52.162;7.560;2023-07-20T05:51:27;100948.69;;;16.08;66.33
64841;BME280;51307;52.162;7.560;2023-07-20T05:53:53;100940.31;;;16.03;66.41
64841;BME280;51307;52.162;7.560;2023-07-20T05:56:18;100939.41;;;15.96;66.64
64841;BME280;51307;52.162;7.560;2023-07-20T05:58:44;100942.88;;;15.90;66.53
64841;BME280;51307;52.162;7.560;2023-07-20T06:01:09;100951.50;;;16.22;66.65
64841;BME280;51307;52.162;7.560;2023-07-20T06:03:35;100950.72;;;16.06;66.36
64841;BME280;51307;52.162;7.560;2023-07-20T06:06:01;100950.00;;;16.41;65.96
64841;BME280;51307;52.162;7.560;2023-07-20T06:08:28;100954.19;;;16.22;65.61
64841;BME280;51307;52.162;7.560;2023-07-20T06:10:54;100953.31;;;16.64;63.72
64841;BME280;51307;52.162;7.560;2023-07-20T06:13:20;100960.03;;;15.82;66.11
64841;BME280;51307;52.162;7.560;2023-07-20T06:15:45;100958.81;;;16.28;65.04
64841;BME280;51307;52.162;7.560;2023-07-20T06:18:12;100964.88;;;16.52;63.70
64841;BME280;51307;52.162;7.560;2023-07-20T06:20:37;100958.88;;;15.91;65.93
64841;BME280;51307;52.162;7.560;2023-07-20T06:23:03;100963.88;;;15.94;65.41
64841;BME280;51307;52.162;7.560;2023-07-20T06:25:28;100963.63;;;16.54;64.23
64841;BME280;51307;52.162;7.560;2023-07-20T06:27:55;100968.47;;;16.16;64.29
64841;BME280;51307;52.162;7.560;2023-07-20T06:30:21;100968.72;;;16.42;64.09
64841;BME280;51307;52.162;7.560;2023-07-20T06:32:47;100971.44;;;16.42;64.59
64841;BME280;51307;52.162;7.560;2023-07-20T06:35:13;100978.09;;;16.46;65.11
64841;BME280;51307;52.162;7.560;2023-07-20T06:37:39;100977.81;;;16.41;64.83
64841;BME280;51307;52.162;7.560;2023-07-20T06:40:05;100978.97;;;16.32;63.97
64841;BME280;51307;52.162;7.560;2023-07-20T06:42:31;100973.16;;;16.50;62.84
64841;BME280;51307;52.162;7.560;2023-07-20T06:44:57;100971.50;;;16.49;62.75
64841;BME280;51307;52.162;7.560;2023-07-20T06:47:23;100973.38;;;16.34;61.87
64841;BME280;51307;52.162;7.560;2023-07-20T06:49:49;100976.53;;;16.59;61.02
64841;BME280;51307;52.162;7.560;2023-07-20T06:52:15;100975.63;;;16.73;61.02
64841;BME280;51307;52.162;7.560;2023-07-20T06:54:40;100978.56;;;16.50;62.46
64841;BME280;51307;52.162;7.560;2023-07-20T06:57:06;100977.09;;;16.76;61.13
64841;BME280;51307;52.162;7.560;2023-07-20T06:59:31;100976.09;;;16.55;62.73
64841;BME280;51307;52.162;7.560;2023-07-20T07:01:57;100973.88;;;16.94;61.27
64841;BME280;51307;52.162;7.560;2023-07-20T07:04:22;100982.13;;;16.86;61.26
64841;BME280;51307;52.162;7.560;2023-07-20T07:06:47;100983.50;;;16.46;62.90
64841;BME280;51307;52.162;7.560;2023-07-20T07:09:13;100977.81;;;16.91;62.17
64841;BME280;51307;52.162;7.560;2023-07-20T07:11:39;100985.09;;;16.91;60.66
64841;BME280;51307;52.162;7.560;2023-07-20T07:14:05;100988.19;;;16.88;61.02
64841;BME280;51307;52.162;7.560;2023-07-20T07:16:30;100983.97;;;16.78;60.02
64841;BME280;51307;52.162;7.560;2023-07-20T07:18:56;100986.28;;;16.82;59.35
64841;BME280;51307;52.162;7.560;2023-07-20T07:21:21;100987.03;;;17.04;59.58
64841;BME280;51307;52.162;7.560;2023-07-20T07:23:47;100991.44;;;17.11;58.60
64841;BME280;51307;52.162;7.560;2023-07-20T07:26:13;100988.91;;;17.03;58.84
64841;BME280;51307;52.162;7.560;2023-07-20T07:28:38;100994.22;;;16.90;59.17
64841;BME280;51307;52.162;7.560;2023-07-20T07:31:04;100989.03;;;17.23;57.05
64841;BME280;51307;52.162;7.560;2023-07-20T07:33:31;100988.75;;;17.46;57.07
64841;BME280;51307;52.162;7.560;2023-07-20T07:35:57;100997.88;;;17.45;55.94
64841;BME280;51307;52.162;7.560;2023-07-20T07:38:23;100999.22;;;16.93;57.60
64841;BME280;51307;52.162;7.560;2023-07-20T07:40:48;100998.31;;;17.14;57.04
64841;BME280;51307;52.162;7.560;2023-07-20T07:43:14;101000.69;;;17.30;55.01
64841;BME280;51307;52.162;7.560;2023-07-20T07:45:40;101004.16;;;17.46;54.99
64841;BME280;51307;52.162;7.560;2023-07-20T07:48:06;101003.72;;;17.42;55.42
64841;BME280;51307;52.162;7.560;2023-07-20T07:50:33;101006.03;;;17.17;56.34
64841;BME280;51307;52.162;7.560;2023-07-20T07:52:58;101004.38;;;17.51;55.02
64841;BME280;51307;52.162;7.560;2023-07-20T07:55:24;101007.50;;;17.55;55.03
64841;BME280;51307;52.162;7.560;2023-07-20T07:57:52;101010.44;;;17.60;54.70
64841;BME280;51307;52.162;7.560;2023-07-20T08:00:18;101016.72;;;17.60;54.08
64841;BME280;51307;52.162;7.560;2023-07-20T08:02:44;101018.66;;;17.38;53.49
64841;BME280;51307;52.162;7.560;2023-07-20T08:05:12;101019.78;;;17.57;52.58
64841;BME280;51307;52.162;7.560;2023-07-20T08:07:38;101019.78;;;17.22;53.28
64841;BME280;51307;52.162;7.560;2023-07-20T08:10:04;101025.59;;;17.47;52.90
64841;BME280;51307;52.162;7.560;2023-07-20T08:12:30;101025.09;;;17.86;53.43
64841;BME280;51307;52.162;7.560;2023-07-20T08:14:55;101022.38;;;17.79;52.66
64841;BME280;51307;52.162;7.560;2023-07-20T08:17:21;101020.44;;;17.59;51.91
64841;BME280;51307;52.162;7.560;2023-07-20T08:19:46;101019.09;;;17.90;51.52
64841;BME280;51307;52.162;7.560;2023-07-20T08:22:12;101023.84;;;17.81;51.17
64841;BME280;51307;52.162;7.560;2023-07-20T08:24:42;101010.06;;;17.63;51.49
64841;BME280;51307;52.162;7.560;2023-07-20T08:27:08;101019.50;;;17.87;49.67
64841;BME280;51307;52.162;7.560;2023-07-20T08:29:35;101010.63;;;18.13;51.04
64841;BME280;51307;52.162;7.560;2023-07-20T08:32:01;101019.00;;;18.32;51.35
64841;BME280;51307;52.162;7.560;2023-07-20T08:34:27;101016.31;;;18.32;51.06
64841;BME280;51307;52.162;7.560;2023-07-20T08:36:52;101012.69;;;17.98;52.07
64841;BME280;51307;52.162;7.560;2023-07-20T08:39:18;101018.81;;;18.34;50.80
64841;BME280;51307;52.162;7.560;2023-07-20T08:41:43;101024.13;;;18.00;50.08
64841;BME280;51307;52.162;7.560;2023-07-20T08:44:10;101024.19;;;17.58;49.38
64841;BME280;51307;52.162;7.560;2023-07-20T08:46:38;101027.19;;;17.77;48.62
64841;BME280;51307;52.162;7.560;2023-07-20T08:49:05;101028.03;;;17.84;48.48
64841;BME280;51307;52.162;7.560;2023-07-20T08:51:32;101032.28;;;18.13;47.82
64841;BME280;51307;52.162;7.560;2023-07-20T08:53:59;101035.47;;;18.30;47.55
64841;BME280;51307;52.162;7.560;2023-07-20T08:56:25;101036.31;;;18.44;47.19
64841;BME280;51307;52.162;7.560;2023-07-20T08:58:56;101040.25;;;18.35;47.31
64841;BME280;51307;52.162;7.560;2023-07-20T09:01:21;101036.56;;;17.81;49.02
64841;BME280;51307;52.162;7.560;2023-07-20T09:03:48;101041.44;;;18.19;48.21
64841;BME280;51307;52.162;7.560;2023-07-20T09:06:14;101031.25;;;18.21;48.00
64841;BME280;51307;52.162;7.560;2023-07-20T09:08:40;101030.63;;;18.26;47.44
64841;BME280;51307;52.162;7.560;2023-07-20T09:11:06;101029.16;;;17.55;46.02
64841;BME280;51307;52.162;7.560;2023-07-20T09:13:33;101033.81;;;17.74;45.82
64841;BME280;51307;52.162;7.560;2023-07-20T09:15:59;101022.09;;;18.29;45.33
64841;BME280;51307;52.162;7.560;2023-07-20T09:18:29;101025.69;;;18.56;43.92
64841;BME280;51307;52.162;7.560;2023-07-20T09:21:03;101017.16;;;18.66;44.41
64841;BME280;51307;52.162;7.560;2023-07-20T09:23:30;101026.94;;;18.60;44.70
64841;BME280;51307;52.162;7.560;2023-07-20T09:25:57;101028.19;;;18.64;47.09
64841;BME280;51307;52.162;7.560;2023-07-20T09:28:23;101033.16;;;18.34;48.29
64841;BME280;51307;52.162;7.560;2023-07-20T09:30:48;101031.50;;;18.53;47.67
64841;BME280;51307;52.162;7.560;2023-07-20T09:33:24;101026.53;;;18.63;47.16
64841;BME280;51307;52.162;7.560;2023-07-20T09:35:50;101030.25;;;18.83;47.24
64841;BME280;51307;52.162;7.560;2023-07-20T09:38:15;101023.00;;;18.56;44.62
64841;BME280;51307;52.162;7.560;2023-07-20T09:40:41;101025.28;;;18.79;45.79
64841;BME280;51307;52.162;7.560;2023-07-20T09:43:08;101024.44;;;18.79;44.24
64841;BME280;51307;52.162;7.560;2023-07-20T09:45:41;101027.56;;;18.69;44.64
64841;BME280;51307;52.162;7.560;2023-07-20T09:48:08;101030.06;;;18.37;45.53
64841;BME280;51307;52.162;7.560;2023-07-20T09:50:40;101030.59;;;18.12;45.97
64841;BME280;51307;52.162;7.560;2023-07-20T09:53:11;101025.69;;;18.50;46.47
64841;BME280;51307;52.162;7.560;2023-07-20T09:55:39;101026.09;;;18.33;45.32
64841;BME280;51307;52.162;7.560;2023-07-20T09:58:05;101020.63;;;18.13;44.44
64841;BME280;51307;52.162;7.560;2023-07-20T10:00:38;101023.59;;;18.65;44.23
64841;BME280;51307;52.162;7.560;2023-07-20T10:03:05;101022.34;;;18.47;43.93
64841;BME280;51307;52.162;7.560;2023-07-20T10:05:35;101013.59;;;18.92;43.85
64841;BME280;51307;52.162;7.560;2023-07-20T10:08:04;101017.97;;;18.87;42.94
64841;BME280;51307;52.162;7.560;2023-07-20T10:10:33;101025.22;;;19.13;42.58
64841;BME280;51307;52.162;7.560;2023-07-20T10:13:01;101018.16;;;19.05;42.77
64841;BME280;51307;52.162;7.560;2023-07-20T10:15:35;101013.72;;;19.31;42.88
64841;BME280;51307;52.162;7.560;2023-07-20T10:18:09;101007.06;;;19.34;42.45
64841;BME280;51307;52.162;7.560;2023-07-20T10:20:39;101011.03;;;19.11;42.97
64841;BME280;51307;52.162;7.560;2023-07-20T10:23:07;101010.91;;;18.86;41.90
64841;BME280;51307;52.162;7.560;2023-07-20T10:25:33;101014.38;;;19.33;42.11
64841;BME280;51307;52.162;7.560;2023-07-20T10:28:05;101010.47;;;18.82;41.42
64841;BME280;51307;52.162;7.560;2023-07-20T10:30:32;101006.28;;;19.00;41.33
64841;BME280;51307;52.162;7.560;2023-07-20T10:32:59;101010.00;;;19.05;41.53
64841;BME280;51307;52.162;7.560;2023-07-20T10:35:28;101000.19;;;19.11;42.52
64841;BME280;51307;52.162;7.560;2023-07-20T10:38:00;101006.09;;;18.74;38.69
64841;BME280;51307;52.162;7.560;2023-07-20T10:40:32;101004.56;;;19.12;39.78
64841;BME280;51307;52.162;7.560;2023-07-20T10:43:02;100998.72;;;19.22;40.12
64841;BME280;51307;52.162;7.560;2023-07-20T10:48:04;100992.00;;;19.38;40.66
64841;BME280;51307;52.162;7.560;2023-07-20T10:50:32;100994.44;;;19.53;40.13
64841;BME280;51307;52.162;7.560;2023-07-20T10:53:11;100992.28;;;19.75;40.64
64841;BME280;51307;52.162;7.560;2023-07-20T10:55:37;100996.75;;;19.56;40.30
64841;BME280;51307;52.162;7.560;2023-07-20T10:58:10;100992.47;;;19.80;41.03
64841;BME280;51307;52.162;7.560;2023-07-20T11:00:36;100988.19;;;19.97;39.73
64841;BME280;51307;52.162;7.560;2023-07-20T11:03:02;100992.09;;;19.70;41.28
64841;BME280;51307;52.162;7.560;2023-07-20T11:05:36;100998.59;;;20.01;41.04
64841;BME280;51307;52.162;7.560;2023-07-20T11:08:12;100988.72;;;20.13;40.30
64841;BME280;51307;52.162;7.560;2023-07-20T11:10:38;100993.81;;;20.03;39.68
64841;BME280;51307;52.162;7.560;2023-07-20T11:16:01;100983.88;;;20.22;40.17
64841;BME280;51307;52.162;7.560;2023-07-20T11:18:27;100979.09;;;20.17;39.79
64841;BME280;51307;52.162;7.560;2023-07-20T11:20:53;100980.09;;;20.23;39.16
64841;BME280;51307;52.162;7.560;2023-07-20T11:23:20;100986.59;;;20.22;38.93
64841;BME280;51307;52.162;7.560;2023-07-20T11:25:45;100983.22;;;19.88;39.26
64841;BME280;51307;52.162;7.560;2023-07-20T11:28:11;100978.03;;;19.79;39.05
64841;BME280;51307;52.162;7.560;2023-07-20T11:30:38;100977.69;;;20.08;39.11
64841;BME280;51307;52.162;7.560;2023-07-20T11:33:09;100980.28;;;19.96;38.86
64841;BME280;51307;52.162;7.560;2023-07-20T11:35:42;100987.88;;;20.19;39.00
64841;BME280;51307;52.162;7.560;2023-07-20T11:38:08;100980.19;;;20.09;38.47
64841;BME280;51307;52.162;7.560;2023-07-20T11:40:33;100980.63;;;20.06;39.10
64841;BME280;51307;52.162;7.560;2023-07-20T11:42:59;100980.41;;;20.08;38.14
64841;BME280;51307;52.162;7.560;2023-07-20T11:45:25;100968.94;;;20.06;37.95
64841;BME280;51307;52.162;7.560;2023-07-20T11:47:53;100971.44;;;20.07;38.48
64841;BME280;51307;52.162;7.560;2023-07-20T11:50:18;100965.50;;;20.17;38.74
64841;BME280;51307;52.162;7.560;2023-07-20T11:52:44;100972.31;;;19.94;39.05
64841;BME280;51307;52.162;7.560;2023-07-20T11:55:10;100972.72;;;19.98;38.31
64841;BME280;51307;52.162;7.560;2023-07-20T11:57:36;100973.44;;;20.19;39.08
64841;BME280;51307;52.162;7.560;2023-07-20T12:00:04;100968.69;;;20.39;40.36
64841;BME280;51307;52.162;7.560;2023-07-20T12:02:34;100974.38;;;20.56;40.33
64841;BME280;51307;52.162;7.560;2023-07-20T12:05:02;100973.72;;;20.10;38.34
64841;BME280;51307;52.162;7.560;2023-07-20T12:07:28;100960.97;;;20.36;39.20
64841;BME280;51307;52.162;7.560;2023-07-20T12:10:26;100958.59;;;20.46;38.79
64841;BME280;51307;52.162;7.560;2023-07-20T12:12:52;100969.50;;;20.14;37.97
64841;BME280;51307;52.162;7.560;2023-07-20T12:15:25;100973.41;;;20.51;38.37
64841;BME280;51307;52.162;7.560;2023-07-20T12:17:55;100959.31;;;20.60;38.61
64841;BME280;51307;52.162;7.560;2023-07-20T12:20:30;100965.31;;;20.44;38.17
64841;BME280;51307;52.162;7.560;2023-07-20T12:23:01;100960.94;;;20.18;37.42
64841;BME280;51307;52.162;7.560;2023-07-20T12:25:46;100953.72;;;20.30;38.29
64841;BME280;51307;52.162;7.560;2023-07-20T12:28:17;100961.97;;;20.17;38.58
64841;BME280;51307;52.162;7.560;2023-07-20T12:30:45;100963.75;;;20.04;38.05
64841;BME280;51307;52.162;7.560;2023-07-20T12:33:11;100968.97;;;19.99;37.97
64841;BME280;51307;52.162;7.560;2023-07-20T12:35:39;100978.44;;;20.22;38.50
64841;BME280;51307;52.162;7.560;2023-07-20T12:38:04;100977.00;;;19.80;42.71
64841;BME280;51307;52.162;7.560;2023-07-20T12:40:31;100971.66;;;20.06;42.86
64841;BME280;51307;52.162;7.560;2023-07-20T12:42:57;100987.16;;;19.53;45.45
64841;BME280;51307;52.162;7.560;2023-07-20T12:45:23;100982.44;;;19.80;44.88
64841;BME280;51307;52.162;7.560;2023-07-20T12:47:49;100979.91;;;19.40;46.12
64841;BME280;51307;52.162;7.560;2023-07-20T12:50:14;100988.28;;;19.32;45.80
64841;BME280;51307;52.162;7.560;2023-07-20T12:52:40;100977.88;;;19.22;46.14
64841;BME280;51307;52.162;7.560;2023-07-20T12:55:07;100976.41;;;19.26;46.36
64841;BME280;51307;52.162;7.560;2023-07-20T12:57:34;100979.25;;;19.52;44.82
64841;BME280;51307;52.162;7.560;2023-07-20T13:00:04;100979.22;;;19.58;45.16